Terminal Aerodrome Forecast
Issued by NWS

Home | Current Version | Previous Version | Text Only | Print | Product List | Glossary On
Versions: 1 2 3 4 5 6 7 8 9 10 11 12 13 14 15 16 17 18 19
000
FTUS44 KMAF 260500
TAFCNM
TAF
KCNM 260520Z 2606/2706 23010KT P6SM SCT250
     FM261600 24021G30KT P6SM BKN200
     FM262000 25028G38KT 5SM -SHRA BLDU SCT080 BKN150
     FM270100 24015G23KT P6SM BKN150=

USA.gov is the U.S. government's official web portal to all federal, state and local government web resources and services.